sensor_id;sensor_type;location;lat;lon;timestamp;temperature;humidity
23783;DHT22;12071;50.850;4.446;2023-04-30T00:02:10;10.00;61.60
23783;DHT22;12071;50.850;4.446;2023-04-30T00:04:35;10.00;79.50
23783;DHT22;12071;50.850;4.446;2023-04-30T00:07:01;10.10;86.00
23783;DHT22;12071;50.850;4.446;2023-04-30T00:09:27;10.30;64.80
23783;DHT22;12071;50.850;4.446;2023-04-30T00:11:52;10.30;55.80
23783;DHT22;12071;50.850;4.446;2023-04-30T00:14:18;10.40;45.80
23783;DHT22;12071;50.850;4.446;2023-04-30T00:16:44;10.60;15.40
23783;DHT22;12071;50.850;4.446;2023-04-30T00:19:11;10.70;8.80
23783;DHT22;12071;50.850;4.446;2023-04-30T00:21:36;10.50;1.00
23783;DHT22;12071;50.850;4.446;2023-04-30T00:24:02;10.20;13.50
23783;DHT22;12071;50.850;4.446;2023-04-30T00:26:28;10.10;49.10
23783;DHT22;12071;50.850;4.446;2023-04-30T00:28:53;9.90;83.60
23783;DHT22;12071;50.850;4.446;2023-04-30T00:31:19;10.00;95.80
23783;DHT22;12071;50.850;4.446;2023-04-30T00:33:45;10.10;90.90
23783;DHT22;12071;50.850;4.446;2023-04-30T00:36:11;10.10;62.10
23783;DHT22;12071;50.850;4.446;2023-04-30T00:38:36;10.00;51.90
23783;DHT22;12071;50.850;4.446;2023-04-30T00:41:02;9.90;78.30
23783;DHT22;12071;50.850;4.446;2023-04-30T00:43:28;10.00;73.20
23783;DHT22;12071;50.850;4.446;2023-04-30T00:45:54;10.10;40.10
23783;DHT22;12071;50.850;4.446;2023-04-30T00:48:19;10.30;1.00
23783;DHT22;12071;50.850;4.446;2023-04-30T00:50:45;10.30;1.00
23783;DHT22;12071;50.850;4.446;2023-04-30T00:53:11;10.10;1.00
23783;DHT22;12071;50.850;4.446;2023-04-30T00:55:39;9.70;19.70
23783;DHT22;12071;50.850;4.446;2023-04-30T00:58:05;9.60;50.50
23783;DHT22;12071;50.850;4.446;2023-04-30T01:00:32;9.50;85.10
23783;DHT22;12071;50.850;4.446;2023-04-30T01:02:58;9.60;98.90
23783;DHT22;12071;50.850;4.446;2023-04-30T01:05:24;9.80;53.60
23783;DHT22;12071;50.850;4.446;2023-04-30T01:07:50;9.90;16.20
23783;DHT22;12071;50.850;4.446;2023-04-30T01:10:18;9.80;1.00
23783;DHT22;12071;50.850;4.446;2023-04-30T01:15:44;9.80;1.00
23783;DHT22;12071;50.850;4.446;2023-04-30T01:18:25;9.70;13.80
23783;DHT22;12071;50.850;4.446;2023-04-30T01:21:03;9.60;33.50
23783;DHT22;12071;50.850;4.446;2023-04-30T01:28:58;9.60;48.10
23783;DHT22;12071;50.850;4.446;2023-04-30T01:31:27;9.40;24.50
23783;DHT22;12071;50.850;4.446;2023-04-30T01:33:52;9.50;23.50
23783;DHT22;12071;50.850;4.446;2023-04-30T01:46:36;9.30;77.80
23783;DHT22;12071;50.850;4.446;2023-04-30T01:49:22;9.40;29.60
23783;DHT22;12071;50.850;4.446;2023-04-30T01:52:12;9.50;1.00
23783;DHT22;12071;50.850;4.446;2023-04-30T01:55:00;9.30;1.00
23783;DHT22;12071;50.850;4.446;2023-04-30T01:57:32;9.00;10.50
23783;DHT22;12071;50.850;4.446;2023-04-30T01:59:59;8.80;45.40
23783;DHT22;12071;50.850;4.446;2023-04-30T02:02:25;8.70;82.00
23783;DHT22;12071;50.850;4.446;2023-04-30T02:04:50;8.70;99.90
23783;DHT22;12071;50.850;4.446;2023-04-30T02:07:26;8.60;99.90
23783;DHT22;12071;50.850;4.446;2023-04-30T02:09:53;8.60;99.90
23783;DHT22;12071;50.850;4.446;2023-04-30T02:12:19;8.60;99.90
23783;DHT22;12071;50.850;4.446;2023-04-30T02:14:45;8.60;99.90
23783;DHT22;12071;50.850;4.446;2023-04-30T02:17:10;8.60;99.90
23783;DHT22;12071;50.850;4.446;2023-04-30T02:19:36;8.60;99.90
23783;DHT22;12071;50.850;4.446;2023-04-30T02:22:02;8.90;89.70
23783;DHT22;12071;50.850;4.446;2023-04-30T02:24:27;8.70;82.50
23783;DHT22;12071;50.850;4.446;2023-04-30T02:26:53;8.50;99.90
23783;DHT22;12071;50.850;4.446;2023-04-30T02:29:18;8.30;99.90
23783;DHT22;12071;50.850;4.446;2023-04-30T02:31:44;8.30;99.90
23783;DHT22;12071;50.850;4.446;2023-04-30T02:34:10;8.20;99.90
23783;DHT22;12071;50.850;4.446;2023-04-30T02:36:35;8.20;99.90
23783;DHT22;12071;50.850;4.446;2023-04-30T02:39:01;8.40;99.90
23783;DHT22;12071;50.850;4.446;2023-04-30T02:41:27;8.40;99.90
23783;DHT22;12071;50.850;4.446;2023-04-30T02:43:52;8.30;99.90
23783;DHT22;12071;50.850;4.446;2023-04-30T02:46:18;8.30;99.90
23783;DHT22;12071;50.850;4.446;2023-04-30T02:48:44;8.20;99.90
23783;DHT22;12071;50.850;4.446;2023-04-30T02:51:09;8.30;99.90
23783;DHT22;12071;50.850;4.446;2023-04-30T02:53:35;8.40;99.90
23783;DHT22;12071;50.850;4.446;2023-04-30T02:56:01;8.50;92.00
23783;DHT22;12071;50.850;4.446;2023-04-30T02:58:26;8.50;72.10
23783;DHT22;12071;50.850;4.446;2023-04-30T03:00:52;8.50;61.50
23783;DHT22;12071;50.850;4.446;2023-04-30T03:03:17;8.40;61.70
23783;DHT22;12071;50.850;4.446;2023-04-30T03:05:43;8.10;96.00
23783;DHT22;12071;50.850;4.446;2023-04-30T03:08:09;8.10;99.90
23783;DHT22;12071;50.850;4.446;2023-04-30T03:10:34;8.20;99.90
23783;DHT22;12071;50.850;4.446;2023-04-30T03:13:00;8.20;99.90
23783;DHT22;12071;50.850;4.446;2023-04-30T03:15:26;7.80;99.90
23783;DHT22;12071;50.850;4.446;2023-04-30T03:17:51;7.90;99.90
23783;DHT22;12071;50.850;4.446;2023-04-30T03:20:17;7.80;99.90
23783;DHT22;12071;50.850;4.446;2023-04-30T03:22:42;7.70;99.90
23783;DHT22;12071;50.850;4.446;2023-04-30T03:25:09;7.70;99.90
23783;DHT22;12071;50.850;4.446;2023-04-30T03:27:34;7.70;99.90
23783;DHT22;12071;50.850;4.446;2023-04-30T03:30:00;8.10;99.90
23783;DHT22;12071;50.850;4.446;2023-04-30T03:32:26;8.00;99.90
23783;DHT22;12071;50.850;4.446;2023-04-30T03:34:51;8.00;99.90
23783;DHT22;12071;50.850;4.446;2023-04-30T03:37:17;8.10;99.90
23783;DHT22;12071;50.850;4.446;2023-04-30T03:39:42;7.90;99.90
23783;DHT22;12071;50.850;4.446;2023-04-30T03:42:08;7.80;99.90
23783;DHT22;12071;50.850;4.446;2023-04-30T03:44:34;7.60;99.90
23783;DHT22;12071;50.850;4.446;2023-04-30T03:47:00;7.50;99.90
23783;DHT22;12071;50.850;4.446;2023-04-30T03:49:25;7.50;99.90
23783;DHT22;12071;50.850;4.446;2023-04-30T03:51:51;7.60;99.90
23783;DHT22;12071;50.850;4.446;2023-04-30T03:54:16;7.70;99.90
23783;DHT22;12071;50.850;4.446;2023-04-30T03:56:42;7.80;99.90
23783;DHT22;12071;50.850;4.446;2023-04-30T03:59:08;7.70;99.90
23783;DHT22;12071;50.850;4.446;2023-04-30T04:01:34;7.60;99.90
23783;DHT22;12071;50.850;4.446;2023-04-30T04:04:00;7.50;99.90
23783;DHT22;12071;50.850;4.446;2023-04-30T04:06:26;7.50;99.90
23783;DHT22;12071;50.850;4.446;2023-04-30T04:08:52;7.30;99.90
23783;DHT22;12071;50.850;4.446;2023-04-30T04:11:17;7.20;99.90
23783;DHT22;12071;50.850;4.446;2023-04-30T04:13:43;7.20;99.90
23783;DHT22;12071;50.850;4.446;2023-04-30T04:16:08;7.30;99.90
23783;DHT22;12071;50.850;4.446;2023-04-30T04:18:34;7.20;99.90
23783;DHT22;12071;50.850;4.446;2023-04-30T04:21:00;7.50;99.90
23783;DHT22;12071;50.850;4.446;2023-04-30T04:23:26;7.70;99.90
23783;DHT22;12071;50.850;4.446;2023-04-30T04:25:52;7.80;99.90
23783;DHT22;12071;50.850;4.446;2023-04-30T04:28:18;7.80;99.90
23783;DHT22;12071;50.850;4.446;2023-04-30T04:30:44;7.60;99.90
23783;DHT22;12071;50.850;4.446;2023-04-30T04:33:10;7.50;99.90
23783;DHT22;12071;50.850;4.446;2023-04-30T04:35:36;7.30;99.90
23783;DHT22;12071;50.850;4.446;2023-04-30T04:38:02;7.30;99.90
23783;DHT22;12071;50.850;4.446;2023-04-30T04:40:28;7.20;99.90
23783;DHT22;12071;50.850;4.446;2023-04-30T04:42:54;7.50;99.90
23783;DHT22;12071;50.850;4.446;2023-04-30T04:45:20;7.60;99.90
23783;DHT22;12071;50.850;4.446;2023-04-30T04:47:46;7.80;99.90
23783;DHT22;12071;50.850;4.446;2023-04-30T04:50:12;7.60;99.90
23783;DHT22;12071;50.850;4.446;2023-04-30T04:52:38;7.60;99.90
23783;DHT22;12071;50.850;4.446;2023-04-30T04:55:04;7.70;99.90
23783;DHT22;12071;50.850;4.446;2023-04-30T04:57:30;7.60;99.90
23783;DHT22;12071;50.850;4.446;2023-04-30T04:59:56;7.60;99.90
23783;DHT22;12071;50.850;4.446;2023-04-30T05:02:22;7.40;99.90
23783;DHT22;12071;50.850;4.446;2023-04-30T05:04:48;7.40;99.90
23783;DHT22;12071;50.850;4.446;2023-04-30T05:07:18;7.30;99.90
23783;DHT22;12071;50.850;4.446;2023-04-30T05:09:44;7.30;99.90
23783;DHT22;12071;50.850;4.446;2023-04-30T05:12:13;7.60;99.90
23783;DHT22;12071;50.850;4.446;2023-04-30T05:14:39;7.60;99.90
23783;DHT22;12071;50.850;4.446;2023-04-30T05:17:05;7.50;99.90
23783;DHT22;12071;50.850;4.446;2023-04-30T05:19:32;7.40;99.90
23783;DHT22;12071;50.850;4.446;2023-04-30T05:21:57;7.60;99.90
23783;DHT22;12071;50.850;4.446;2023-04-30T05:24:24;7.70;99.90
23783;DHT22;12071;50.850;4.446;2023-04-30T05:26:50;7.70;99.90
23783;DHT22;12071;50.850;4.446;2023-04-30T05:29:15;7.60;99.90
23783;DHT22;12071;50.850;4.446;2023-04-30T05:31:41;7.70;99.90
23783;DHT22;12071;50.850;4.446;2023-04-30T05:34:07;7.80;99.90
23783;DHT22;12071;50.850;4.446;2023-04-30T05:36:32;7.80;99.90
23783;DHT22;12071;50.850;4.446;2023-04-30T05:38:58;7.80;99.90
23783;DHT22;12071;50.850;4.446;2023-04-30T05:41:24;7.90;99.90
23783;DHT22;12071;50.850;4.446;2023-04-30T05:43:50;8.10;99.90
23783;DHT22;12071;50.850;4.446;2023-04-30T05:46:15;8.20;99.90
23783;DHT22;12071;50.850;4.446;2023-04-30T05:48:41;8.10;99.90
23783;DHT22;12071;50.850;4.446;2023-04-30T05:51:06;8.20;99.90
23783;DHT22;12071;50.850;4.446;2023-04-30T05:53:32;8.40;99.90
23783;DHT22;12071;50.850;4.446;2023-04-30T05:55:58;8.30;99.90
23783;DHT22;12071;50.850;4.446;2023-04-30T05:58:24;8.50;99.90
23783;DHT22;12071;50.850;4.446;2023-04-30T06:00:50;8.50;99.90
23783;DHT22;12071;50.850;4.446;2023-04-30T06:03:18;8.50;99.90
23783;DHT22;12071;50.850;4.446;2023-04-30T06:05:47;8.60;99.90
23783;DHT22;12071;50.850;4.446;2023-04-30T06:08:13;8.70;99.90
23783;DHT22;12071;50.850;4.446;2023-04-30T06:10:38;8.90;99.90
23783;DHT22;12071;50.850;4.446;2023-04-30T06:13:05;9.00;99.90
23783;DHT22;12071;50.850;4.446;2023-04-30T06:15:32;9.00;99.90
23783;DHT22;12071;50.850;4.446;2023-04-30T06:17:58;9.00;99.90
23783;DHT22;12071;50.850;4.446;2023-04-30T06:20:23;9.10;99.90
23783;DHT22;12071;50.850;4.446;2023-04-30T06:22:49;9.40;99.90
23783;DHT22;12071;50.850;4.446;2023-04-30T06:25:14;9.40;99.90
23783;DHT22;12071;50.850;4.446;2023-04-30T06:27:40;9.50;99.90
23783;DHT22;12071;50.850;4.446;2023-04-30T06:30:06;9.60;99.90
23783;DHT22;12071;50.850;4.446;2023-04-30T06:32:32;9.70;99.90
23783;DHT22;12071;50.850;4.446;2023-04-30T06:34:58;9.80;99.90
23783;DHT22;12071;50.850;4.446;2023-04-30T06:37:23;10.00;99.90
23783;DHT22;12071;50.850;4.446;2023-04-30T06:39:49;10.20;99.90
23783;DHT22;12071;50.850;4.446;2023-04-30T06:42:16;10.50;99.90
23783;DHT22;12071;50.850;4.446;2023-04-30T06:44:41;10.50;99.90
23783;DHT22;12071;50.850;4.446;2023-04-30T06:47:07;10.40;99.90
23783;DHT22;12071;50.850;4.446;2023-04-30T06:49:33;10.60;99.90
23783;DHT22;12071;50.850;4.446;2023-04-30T06:51:58;10.70;99.90
23783;DHT22;12071;50.850;4.446;2023-04-30T06:54:25;10.70;99.90
23783;DHT22;12071;50.850;4.446;2023-04-30T06:56:52;11.00;99.90
23783;DHT22;12071;50.850;4.446;2023-04-30T06:59:17;11.00;93.60
23783;DHT22;12071;50.850;4.446;2023-04-30T07:01:43;11.10;99.90
23783;DHT22;12071;50.850;4.446;2023-04-30T07:04:09;11.10;95.30
23783;DHT22;12071;50.850;4.446;2023-04-30T07:06:34;11.10;99.90
23783;DHT22;12071;50.850;4.446;2023-04-30T07:09:00;11.20;99.90
23783;DHT22;12071;50.850;4.446;2023-04-30T07:11:26;11.10;89.10
23783;DHT22;12071;50.850;4.446;2023-04-30T07:13:52;11.30;95.80
23783;DHT22;12071;50.850;4.446;2023-04-30T07:16:18;11.70;26.20
23783;DHT22;12071;50.850;4.446;2023-04-30T07:18:44;11.70;1.00
23783;DHT22;12071;50.850;4.446;2023-04-30T07:21:13;11.90;1.00
23783;DHT22;12071;50.850;4.446;2023-04-30T07:23:39;12.00;1.00
23783;DHT22;12071;50.850;4.446;2023-04-30T07:26:04;12.00;1.00
23783;DHT22;12071;50.850;4.446;2023-04-30T07:28:30;12.20;1.00
23783;DHT22;12071;50.850;4.446;2023-04-30T07:30:56;12.30;1.00
23783;DHT22;12071;50.850;4.446;2023-04-30T07:33:21;12.10;1.00
23783;DHT22;12071;50.850;4.446;2023-04-30T07:35:47;12.10;1.00
23783;DHT22;12071;50.850;4.446;2023-04-30T07:38:12;12.10;1.00
23783;DHT22;12071;50.850;4.446;2023-04-30T07:40:38;12.10;1.00
23783;DHT22;12071;50.850;4.446;2023-04-30T07:43:03;12.20;1.00
23783;DHT22;12071;50.850;4.446;2023-04-30T07:45:29;12.40;1.00
23783;DHT22;12071;50.850;4.446;2023-04-30T07:47:56;12.50;99.90
23783;DHT22;12071;50.850;4.446;2023-04-30T07:50:21;12.50;99.90
23783;DHT22;12071;50.850;4.446;2023-04-30T07:52:48;12.60;99.90
23783;DHT22;12071;50.850;4.446;2023-04-30T07:55:14;12.70;99.90
23783;DHT22;12071;50.850;4.446;2023-04-30T07:57:40;12.70;99.90
23783;DHT22;12071;50.850;4.446;2023-04-30T08:00:06;12.80;99.90
23783;DHT22;12071;50.850;4.446;2023-04-30T08:02:32;12.80;99.90
23783;DHT22;12071;50.850;4.446;2023-04-30T08:04:58;12.80;99.90
23783;DHT22;12071;50.850;4.446;2023-04-30T08:07:24;12.90;99.90
23783;DHT22;12071;50.850;4.446;2023-04-30T08:09:49;12.80;99.90
23783;DHT22;12071;50.850;4.446;2023-04-30T08:12:16;13.10;99.90
23783;DHT22;12071;50.850;4.446;2023-04-30T08:14:42;13.20;1.00
23783;DHT22;12071;50.850;4.446;2023-04-30T08:17:08;13.20;1.00
23783;DHT22;12071;50.850;4.446;2023-04-30T08:19:33;13.40;99.90
23783;DHT22;12071;50.850;4.446;2023-04-30T08:21:59;13.50;99.90
23783;DHT22;12071;50.850;4.446;2023-04-30T08:24:25;13.50;99.90
23783;DHT22;12071;50.850;4.446;2023-04-30T08:26:51;13.60;1.00
23783;DHT22;12071;50.850;4.446;2023-04-30T08:29:16;13.70;99.90
23783;DHT22;12071;50.850;4.446;2023-04-30T08:31:42;13.90;99.90
23783;DHT22;12071;50.850;4.446;2023-04-30T08:34:08;14.10;99.90
23783;DHT22;12071;50.850;4.446;2023-04-30T08:36:33;14.20;63.80
23783;DHT22;12071;50.850;4.446;2023-04-30T08:38:59;14.30;99.90
23783;DHT22;12071;50.850;4.446;2023-04-30T08:41:31;14.50;99.90
23783;DHT22;12071;50.850;4.446;2023-04-30T08:44:01;14.50;1.00
23783;DHT22;12071;50.850;4.446;2023-04-30T08:46:31;14.50;1.00
23783;DHT22;12071;50.850;4.446;2023-04-30T08:48:56;14.40;99.90
23783;DHT22;12071;50.850;4.446;2023-04-30T08:51:25;14.40;1.00
23783;DHT22;12071;50.850;4.446;2023-04-30T08:53:53;14.60;1.00
23783;DHT22;12071;50.850;4.446;2023-04-30T08:56:19;14.60;99.90
23783;DHT22;12071;50.850;4.446;2023-04-30T08:58:46;14.60;99.90
23783;DHT22;12071;50.850;4.446;2023-04-30T09:01:12;14.70;99.90
23783;DHT22;12071;50.850;4.446;2023-04-30T09:03:38;14.70;1.00
23783;DHT22;12071;50.850;4.446;2023-04-30T09:06:04;14.90;1.00
23783;DHT22;12071;50.850;4.446;2023-04-30T09:08:43;15.20;1.00
23783;DHT22;12071;50.850;4.446;2023-04-30T09:11:25;15.50;1.00
23783;DHT22;12071;50.850;4.446;2023-04-30T09:13:54;15.60;99.90
23783;DHT22;12071;50.850;4.446;2023-04-30T09:16:22;15.70;99.90
23783;DHT22;12071;50.850;4.446;2023-04-30T09:18:48;15.60;99.90
23783;DHT22;12071;50.850;4.446;2023-04-30T09:21:14;15.70;99.90
23783;DHT22;12071;50.850;4.446;2023-04-30T09:23:57;15.60;99.90
23783;DHT22;12071;50.850;4.446;2023-04-30T09:26:35;16.00;79.80
23783;DHT22;12071;50.850;4.446;2023-04-30T09:29:01;16.10;1.00
23783;DHT22;12071;50.850;4.446;2023-04-30T09:31:33;16.30;1.00
23783;DHT22;12071;50.850;4.446;2023-04-30T09:33:59;16.50;1.00
23783;DHT22;12071;50.850;4.446;2023-04-30T09:36:25;16.30;1.00
23783;DHT22;12071;50.850;4.446;2023-04-30T09:38:52;16.00;1.00
23783;DHT22;12071;50.850;4.446;2023-04-30T09:41:28;16.20;99.90
23783;DHT22;12071;50.850;4.446;2023-04-30T09:43:55;16.40;99.90
23783;DHT22;12071;50.850;4.446;2023-04-30T09:46:28;16.60;1.00
23783;DHT22;12071;50.850;4.446;2023-04-30T09:48:56;16.80;68.30
23783;DHT22;12071;50.850;4.446;2023-04-30T09:51:23;16.90;1.00
23783;DHT22;12071;50.850;4.446;2023-04-30T09:53:50;16.70;1.00
23783;DHT22;12071;50.850;4.446;2023-04-30T09:56:22;16.70;1.00
23783;DHT22;12071;50.850;4.446;2023-04-30T09:58:53;16.90;15.50
23783;DHT22;12071;50.850;4.446;2023-04-30T10:01:25;17.20;1.00
23783;DHT22;12071;50.850;4.446;2023-04-30T10:03:54;17.60;1.00
23783;DHT22;12071;50.850;4.446;2023-04-30T10:06:21;17.70;1.00
23783;DHT22;12071;50.850;4.446;2023-04-30T10:08:51;17.80;99.90
23783;DHT22;12071;50.850;4.446;2023-04-30T10:11:19;17.90;99.90
23783;DHT22;12071;50.850;4.446;2023-04-30T10:13:58;18.10;99.90
23783;DHT22;12071;50.850;4.446;2023-04-30T10:16:43;18.00;99.90
23783;DHT22;12071;50.850;4.446;2023-04-30T10:19:29;18.20;99.90
23783;DHT22;12071;50.850;4.446;2023-04-30T10:21:56;17.90;99.90
23783;DHT22;12071;50.850;4.446;2023-04-30T10:24:24;17.90;99.90
23783;DHT22;12071;50.850;4.446;2023-04-30T10:26:49;17.70;99.90
23783;DHT22;12071;50.850;4.446;2023-04-30T10:29:16;17.80;99.90
23783;DHT22;12071;50.850;4.446;2023-04-30T10:31:45;17.80;99.90
23783;DHT22;12071;50.850;4.446;2023-04-30T10:36:45;17.80;99.90
23783;DHT22;12071;50.850;4.446;2023-04-30T10:39:17;17.50;99.90
23783;DHT22;12071;50.850;4.446;2023-04-30T10:41:44;17.70;99.90
23783;DHT22;12071;50.850;4.446;2023-04-30T10:44:11;17.70;91.50
23783;DHT22;12071;50.850;4.446;2023-04-30T10:46:37;17.60;2.90
23783;DHT22;12071;50.850;4.446;2023-04-30T10:49:03;17.90;47.30
23783;DHT22;12071;50.850;4.446;2023-04-30T10:51:49;18.10;1.00
23783;DHT22;12071;50.850;4.446;2023-04-30T10:54:26;18.20;1.00
23783;DHT22;12071;50.850;4.446;2023-04-30T10:56:52;18.40;1.00
23783;DHT22;12071;50.850;4.446;2023-04-30T10:59:21;18.30;1.00
23783;DHT22;12071;50.850;4.446;2023-04-30T11:02:05;18.10;1.00
23783;DHT22;12071;50.850;4.446;2023-04-30T11:04:31;18.20;1.00
23783;DHT22;12071;50.850;4.446;2023-04-30T11:09:43;18.70;1.00
23783;DHT22;12071;50.850;4.446;2023-04-30T11:12:20;18.80;1.00
23783;DHT22;12071;50.850;4.446;2023-04-30T11:17:34;19.30;1.00
23783;DHT22;12071;50.850;4.446;2023-04-30T11:20:00;19.20;1.00
23783;DHT22;12071;50.850;4.446;2023-04-30T11:22:27;19.10;99.90
23783;DHT22;12071;50.850;4.446;2023-04-30T11:27:25;19.60;99.90
23783;DHT22;12071;50.850;4.446;2023-04-30T11:29:51;19.50;99.90
23783;DHT22;12071;50.850;4.446;2023-04-30T11:32:21;19.40;99.90
23783;DHT22;12071;50.850;4.446;2023-04-30T11:34:48;19.30;99.90
23783;DHT22;12071;50.850;4.446;2023-04-30T11:37:24;19.40;99.90
23783;DHT22;12071;50.850;4.446;2023-04-30T11:39:54;19.60;99.90
23783;DHT22;12071;50.850;4.446;2023-04-30T11:42:20;19.50;99.90
23783;DHT22;12071;50.850;4.446;2023-04-30T11:44:46;19.70;99.90
23783;DHT22;12071;50.850;4.446;2023-04-30T11:47:13;19.70;99.90
23783;DHT22;12071;50.850;4.446;2023-04-30T11:49:42;19.70;99.90
23783;DHT22;12071;50.850;4.446;2023-04-30T11:52:08;19.80;99.90
23783;DHT22;12071;50.850;4.446;2023-04-30T11:54:37;20.20;99.90
23783;DHT22;12071;50.850;4.446;2023-04-30T11:57:03;20.50;99.90
23783;DHT22;12071;50.850;4.446;2023-04-30T11:59:29;20.50;99.90
23783;DHT22;12071;50.850;4.446;2023-04-30T12:01:56;20.50;99.90
23783;DHT22;12071;50.850;4.446;2023-04-30T12:04:21;20.60;99.90
23783;DHT22;12071;50.850;4.446;2023-04-30T12:06:47;20.90;99.90
23783;DHT22;12071;50.850;4.446;2023-04-30T12:09:13;21.10;99.90
23783;DHT22;12071;50.850;4.446;2023-04-30T12:11:39;20.20;99.90
23783;DHT22;12071;50.850;4.446;2023-04-30T12:14:09;20.10;99.90
23783;DHT22;12071;50.850;4.446;2023-04-30T12:16:48;20.10;99.90
23783;DHT22;12071;50.850;4.446;2023-04-30T12:19:15;20.50;99.90
23783;DHT22;12071;50.850;4.446;2023-04-30T12:21:43;21.00;99.90
23783;DHT22;12071;50.850;4.446;2023-04-30T12:24:11;20.90;99.90
23783;DHT22;12071;50.850;4.446;2023-04-30T12:26:38;20.90;99.90
23783;DHT22;12071;50.850;4.446;2023-04-30T12:29:15;21.00;99.90
23783;DHT22;12071;50.850;4.446;2023-04-30T12:31:41;21.10;99.90
23783;DHT22;12071;50.850;4.446;2023-04-30T12:34:09;21.30;99.90
23783;DHT22;12071;50.850;4.446;2023-04-30T12:36:36;21.50;99.90
23783;DHT22;12071;50.850;4.446;2023-04-30T12:39:14;21.50;99.90
23783;DHT22;12071;50.850;4.446;2023-04-30T12:41:45;21.30;99.90
23783;DHT22;12071;50.850;4.446;2023-04-30T12:44:19;21.50;99.90
23783;DHT22;12071;50.850;4.446;2023-04-30T12:46:46;21.70;99.90
23783;DHT22;12071;50.850;4.446;2023-04-30T12:49:24;21.80;99.90
23783;DHT22;12071;50.850;4.446;2023-04-30T12:51:50;21.90;99.90
23783;DHT22;12071;50.850;4.446;2023-04-30T12:54:30;21.90;89.90
23783;DHT22;12071;50.850;4.446;2023-04-30T12:57:01;22.00;92.40
23783;DHT22;12071;50.850;4.446;2023-04-30T12:59:28;21.70;60.00
23783;DHT22;12071;50.850;4.446;2023-04-30T13:01:54;21.80;49.10
23783;DHT22;12071;50.850;4.446;2023-04-30T13:04:20;22.20;69.00
23783;DHT22;12071;50.850;4.446;2023-04-30T13:06:46;22.40;73.20
23783;DHT22;12071;50.850;4.446;2023-04-30T13:09:12;22.30;86.40
23783;DHT22;12071;50.850;4.446;2023-04-30T13:11:38;22.60;73.70
23783;DHT22;12071;50.850;4.446;2023-04-30T13:14:03;22.70;67.40
23783;DHT22;12071;50.850;4.446;2023-04-30T13:16:29;22.60;38.60
23783;DHT22;12071;50.850;4.446;2023-04-30T13:18:56;22.50;22.40
23783;DHT22;12071;50.850;4.446;2023-04-30T13:21:21;22.80;26.10
23783;DHT22;12071;50.850;4.446;2023-04-30T13:23:49;22.80;10.10
23783;DHT22;12071;50.850;4.446;2023-04-30T13:26:14;22.80;7.20
23783;DHT22;12071;50.850;4.446;2023-04-30T13:28:40;23.10;1.00
23783;DHT22;12071;50.850;4.446;2023-04-30T13:31:06;23.50;13.30
23783;DHT22;12071;50.850;4.446;2023-04-30T13:33:32;23.70;1.00
23783;DHT22;12071;50.850;4.446;2023-04-30T13:35:57;24.70;1.00
23783;DHT22;12071;50.850;4.446;2023-04-30T13:38:23;25.80;1.00
23783;DHT22;12071;50.850;4.446;2023-04-30T13:40:49;26.50;1.00
23783;DHT22;12071;50.850;4.446;2023-04-30T13:43:14;27.70;1.00
23783;DHT22;12071;50.850;4.446;2023-04-30T13:45:40;27.70;1.00
23783;DHT22;12071;50.850;4.446;2023-04-30T13:48:05;26.00;1.00
23783;DHT22;12071;50.850;4.446;2023-04-30T13:50:31;25.30;1.00
23783;DHT22;12071;50.850;4.446;2023-04-30T13:52:57;25.20;1.00
23783;DHT22;12071;50.850;4.446;2023-04-30T13:55:23;25.90;1.00
23783;DHT22;12071;50.850;4.446;2023-04-30T13:57:52;26.50;1.00
23783;DHT22;12071;50.850;4.446;2023-04-30T14:00:18;26.40;1.00
23783;DHT22;12071;50.850;4.446;2023-04-30T14:02:44;26.10;1.00
23783;DHT22;12071;50.850;4.446;2023-04-30T14:05:09;26.50;1.00
23783;DHT22;12071;50.850;4.446;2023-04-30T14:07:35;27.40;1.00
23783;DHT22;12071;50.850;4.446;2023-04-30T14:10:02;28.80;1.00
23783;DHT22;12071;50.850;4.446;2023-04-30T14:12:27;29.30;1.00
23783;DHT22;12071;50.850;4.446;2023-04-30T14:14:55;29.70;1.00
23783;DHT22;12071;50.850;4.446;2023-04-30T14:17:24;29.10;99.90
23783;DHT22;12071;50.850;4.446;2023-04-30T14:19:54;30.10;1.00
23783;DHT22;12071;50.850;4.446;2023-04-30T14:22:20;29.70;99.90
23783;DHT22;12071;50.850;4.446;2023-04-30T14:24:53;29.40;1.00
23783;DHT22;12071;50.850;4.446;2023-04-30T14:27:21;28.50;1.00
23783;DHT22;12071;50.850;4.446;2023-04-30T14:29:47;28.70;99.90
23783;DHT22;12071;50.850;4.446;2023-04-30T14:32:15;28.80;99.90
23783;DHT22;12071;50.850;4.446;2023-04-30T14:34:44;29.40;99.90
23783;DHT22;12071;50.850;4.446;2023-04-30T14:37:12;30.00;99.90
23783;DHT22;12071;50.850;4.446;2023-04-30T14:39:38;28.90;99.90
23783;DHT22;12071;50.850;4.446;2023-04-30T14:42:03;28.70;99.90
23783;DHT22;12071;50.850;4.446;2023-04-30T14:44:29;28.30;99.90
23783;DHT22;12071;50.850;4.446;2023-04-30T14:46:56;29.10;99.90
23783;DHT22;12071;50.850;4.446;2023-04-30T14:49:22;29.90;99.90
23783;DHT22;12071;50.850;4.446;2023-04-30T14:51:50;29.90;99.90
23783;DHT22;12071;50.850;4.446;2023-04-30T14:54:21;29.60;99.90
23783;DHT22;12071;50.850;4.446;2023-04-30T14:56:47;29.10;99.90
23783;DHT22;12071;50.850;4.446;2023-04-30T14:59:13;28.00;99.90
23783;DHT22;12071;50.850;4.446;2023-04-30T15:01:39;28.00;99.90
23783;DHT22;12071;50.850;4.446;2023-04-30T15:04:05;28.70;99.90
23783;DHT22;12071;50.850;4.446;2023-04-30T15:06:31;29.50;99.90
23783;DHT22;12071;50.850;4.446;2023-04-30T15:08:58;29.60;99.90
23783;DHT22;12071;50.850;4.446;2023-04-30T15:11:24;29.60;99.90
23783;DHT22;12071;50.850;4.446;2023-04-30T15:13:49;30.20;99.90
23783;DHT22;12071;50.850;4.446;2023-04-30T15:16:15;30.80;99.90
23783;DHT22;12071;50.850;4.446;2023-04-30T15:18:42;30.90;99.90
23783;DHT22;12071;50.850;4.446;2023-04-30T15:21:08;30.00;99.90
23783;DHT22;12071;50.850;4.446;2023-04-30T15:23:33;29.60;99.90
23783;DHT22;12071;50.850;4.446;2023-04-30T15:26:00;27.90;99.90
23783;DHT22;12071;50.850;4.446;2023-04-30T15:28:26;26.60;99.90
23783;DHT22;12071;50.850;4.446;2023-04-30T15:30:52;26.00;99.90
23783;DHT22;12071;50.850;4.446;2023-04-30T15:33:18;25.50;99.90
23783;DHT22;12071;50.850;4.446;2023-04-30T15:35:44;25.90;99.90
23783;DHT22;12071;50.850;4.446;2023-04-30T15:38:11;27.00;99.90
23783;DHT22;12071;50.850;4.446;2023-04-30T15:40:37;27.70;99.90
23783;DHT22;12071;50.850;4.446;2023-04-30T15:43:03;28.00;99.90
23783;DHT22;12071;50.850;4.446;2023-04-30T15:45:30;28.30;99.90
23783;DHT22;12071;50.850;4.446;2023-04-30T15:47:58;28.90;99.90
23783;DHT22;12071;50.850;4.446;2023-04-30T15:50:27;28.90;99.90
23783;DHT22;12071;50.850;4.446;2023-04-30T15:52:53;29.60;99.90
23783;DHT22;12071;50.850;4.446;2023-04-30T15:55:19;29.60;99.90
23783;DHT22;12071;50.850;4.446;2023-04-30T15:57:44;29.50;99.90
23783;DHT22;12071;50.850;4.446;2023-04-30T16:00:11;28.60;99.90
23783;DHT22;12071;50.850;4.446;2023-04-30T16:02:38;27.40;99.90
23783;DHT22;12071;50.850;4.446;2023-04-30T16:05:04;26.40;99.90
23783;DHT22;12071;50.850;4.446;2023-04-30T16:07:30;26.10;99.90
23783;DHT22;12071;50.850;4.446;2023-04-30T16:09:57;25.80;99.90